Advance, North Carolina
Current Conditions -  °F | °C
As of 2:35 PM on Thursday 30 Oct 2014 (Local Time) from KEXX Reporting Station
Clear Clear  
Wind Chill: 64°   Ceiling: Unl
Heat Index: 64°   Visibility: 10mi
Dew Point: 36°   Wind: 0mph
Humidity: 35%   Direction: NA
Pressure: 30"   Gusts: NA
Location:  35.95°N, 80.41°W
Report Text: KEXX 301835Z AUTO 00000KT 10SM CLR 18/02 A3000 RMK AO2 T01750020
Loading
Personal Weather Stations






























Interactive Weather Map New forecast layout! Learn more

10-Day Weather Forecast

Advertisements
Track Severe Weather on mobile